createdAt,value
2018-05-10T00:01:33.134Z,11.93
2018-05-10T00:04:00.807Z,12.93
2018-05-10T00:06:28.502Z,13.20
2018-05-10T00:08:56.388Z,11.57
2018-05-10T00:11:23.951Z,12.40
2018-05-10T00:13:52.208Z,12.90
2018-05-10T00:16:19.744Z,11.90
2018-05-10T00:18:47.436Z,11.90
2018-05-10T00:21:14.931Z,13.17
2018-05-10T00:23:42.438Z,12.57
2018-05-10T00:26:10.078Z,13.33
2018-05-10T00:28:37.636Z,13.37
2018-05-10T00:31:05.177Z,11.80
2018-05-10T00:33:33.121Z,11.67
2018-05-10T00:36:01.137Z,11.63
2018-05-10T00:38:28.652Z,12.40
2018-05-10T00:40:56.219Z,12.50
2018-05-10T00:43:23.730Z,12.43
2018-05-10T00:45:51.234Z,11.80
2018-05-10T00:48:18.738Z,12.87
2018-05-10T00:50:46.615Z,11.83
2018-05-10T00:53:14.165Z,12.10
2018-05-10T00:55:42.590Z,10.43
2018-05-10T00:58:10.131Z,11.53
2018-05-10T01:00:38.030Z,14.53
2018-05-10T01:03:06.593Z,12.53
2018-05-10T01:05:34.277Z,12.17
2018-05-10T01:08:01.775Z,11.27
2018-05-10T01:10:29.259Z,12.37
2018-05-10T01:12:56.855Z,11.63
2018-05-10T01:15:24.315Z,11.23
2018-05-10T01:17:51.870Z,12.03
2018-05-10T01:20:19.388Z,13.10
2018-05-10T01:22:46.894Z,12.00
2018-05-10T01:25:14.885Z,11.07
2018-05-10T01:27:42.423Z,11.70
2018-05-10T01:30:09.975Z,11.00
2018-05-10T01:32:37.532Z,10.23
2018-05-10T01:35:17.029Z,12.63
2018-05-10T01:37:44.690Z,12.27
2018-05-10T01:40:12.257Z,12.10
2018-05-10T01:42:39.741Z,11.60
2018-05-10T01:45:07.282Z,11.33
2018-05-10T01:47:34.791Z,10.80
2018-05-10T01:50:02.312Z,11.00
2018-05-10T01:52:29.880Z,11.00
2018-05-10T01:54:57.497Z,11.00
2018-05-10T01:57:24.979Z,10.73
2018-05-10T01:59:52.860Z,11.90
2018-05-10T02:02:21.219Z,11.20
2018-05-10T02:04:48.797Z,9.70
2018-05-10T02:07:16.710Z,11.53
2018-05-10T02:09:44.230Z,10.60
2018-05-10T02:12:11.759Z,10.63
2018-05-10T02:14:39.291Z,12.40
2018-05-10T02:17:06.839Z,12.53
2018-05-10T02:19:34.413Z,12.47
2018-05-10T02:22:01.934Z,12.30
2018-05-10T02:24:29.549Z,11.10
2018-05-10T02:26:57.460Z,11.97
2018-05-10T02:29:25.403Z,11.87
2018-05-10T02:31:52.915Z,13.00
2018-05-10T02:34:20.784Z,10.73
2018-05-10T02:36:48.674Z,11.87
2018-05-10T02:39:16.176Z,10.87
2018-05-10T02:41:43.683Z,11.73
2018-05-10T02:44:11.692Z,12.30
2018-05-10T02:46:40.522Z,11.83
2018-05-10T02:49:08.577Z,11.63
2018-05-10T02:51:36.101Z,11.80
2018-05-10T02:54:04.052Z,11.93
2018-05-10T02:56:31.558Z,10.97
2018-05-10T02:58:59.051Z,11.70
2018-05-10T03:01:26.571Z,11.67
2018-05-10T03:03:54.133Z,11.70
2018-05-10T03:06:21.714Z,11.60
2018-05-10T03:08:49.208Z,10.90
2018-05-10T03:11:16.737Z,12.30
2018-05-10T03:13:45.537Z,11.67
2018-05-10T03:16:13.105Z,11.87
2018-05-10T03:18:40.662Z,11.20
2018-05-10T03:21:08.136Z,11.77
2018-05-10T03:23:35.633Z,12.10
2018-05-10T03:26:03.186Z,10.77
2018-05-10T03:28:30.774Z,13.07
2018-05-10T03:30:58.323Z,11.30
2018-05-10T03:33:26.335Z,12.70
2018-05-10T03:35:54.276Z,12.43
2018-05-10T03:38:21.892Z,12.07
2018-05-10T03:40:49.588Z,13.00
2018-05-10T03:43:17.147Z,13.20
2018-05-10T03:45:44.673Z,13.87
2018-05-10T03:48:12.169Z,13.63
2018-05-10T03:50:39.661Z,14.47
2018-05-10T03:53:07.164Z,15.33
2018-05-10T03:55:35.189Z,14.03
2018-05-10T03:58:02.668Z,14.10
2018-05-10T04:00:30.154Z,14.60
2018-05-10T04:16:40.602Z,15.67
2018-05-10T04:19:08.113Z,13.90
2018-05-10T04:21:35.721Z,14.83
2018-05-10T04:24:03.326Z,15.17
2018-05-10T04:26:30.807Z,14.83
2018-05-10T04:28:58.374Z,16.40
2018-05-10T04:31:25.888Z,15.03
2018-05-10T04:33:53.426Z,15.27
2018-05-10T04:36:21.542Z,16.60
2018-05-10T04:38:49.086Z,15.10
2018-05-10T04:41:16.647Z,16.70
2018-05-10T04:43:44.162Z,15.03
2018-05-10T04:46:11.780Z,14.80
2018-05-10T04:48:39.268Z,14.97
2018-05-10T04:51:06.848Z,15.00
2018-05-10T04:53:34.407Z,15.60
2018-05-10T04:56:01.969Z,16.83
2018-05-10T04:58:29.883Z,19.03
2018-05-10T05:00:57.749Z,16.67
2018-05-10T05:03:25.722Z,19.03
2018-05-10T05:05:53.299Z,19.60
2018-05-10T05:08:20.882Z,23.80
2018-05-10T05:10:48.344Z,23.10
2018-05-10T05:13:15.857Z,25.83
2018-05-10T05:15:43.444Z,31.47
2018-05-10T05:18:11.396Z,31.43
2018-05-10T05:20:38.897Z,27.60
2018-05-10T05:23:06.450Z,27.60
2018-05-10T05:25:34.342Z,29.90
2018-05-10T05:28:02.640Z,30.63
2018-05-10T05:30:30.172Z,29.37
2018-05-10T05:32:58.041Z,32.23
2018-05-10T05:35:25.915Z,32.30
2018-05-10T05:37:53.780Z,32.73
2018-05-10T05:40:21.753Z,35.03
2018-05-10T05:42:49.699Z,37.80
2018-05-10T05:45:17.185Z,37.00
2018-05-10T05:47:45.064Z,43.27
2018-05-10T05:50:12.980Z,40.47
2018-05-10T05:52:40.441Z,42.13
2018-05-10T05:55:07.982Z,41.20
2018-05-10T05:57:35.455Z,45.77
2018-05-10T06:00:02.982Z,43.53
2018-05-10T06:02:30.851Z,43.03
2018-05-10T06:04:58.817Z,45.87
2018-05-10T06:07:26.760Z,43.73
2018-05-10T06:09:54.356Z,44.77
2018-05-10T06:12:22.328Z,43.50
2018-05-10T06:14:49.816Z,44.40
2018-05-10T06:17:17.684Z,46.20
2018-05-10T06:19:45.213Z,44.70
2018-05-10T06:22:12.710Z,44.77
2018-05-10T06:24:40.198Z,45.00
2018-05-10T06:27:07.676Z,46.37
2018-05-10T06:29:35.259Z,46.50
2018-05-10T06:32:03.071Z,46.97
2018-05-10T06:34:30.553Z,48.13
2018-05-10T06:36:58.042Z,49.60
2018-05-10T06:39:25.538Z,48.87
2018-05-10T06:41:53.501Z,49.20
2018-05-10T06:44:21.182Z,48.20
2018-05-10T06:46:49.781Z,48.53
2018-05-10T06:49:17.391Z,44.10
2018-05-10T06:51:45.783Z,44.00
2018-05-10T06:54:13.416Z,44.77
2018-05-10T06:56:41.087Z,42.00
2018-05-10T06:59:08.643Z,44.13
2018-05-10T07:01:36.255Z,44.53
2018-05-10T07:04:03.818Z,45.37
2018-05-10T07:06:31.264Z,43.57
2018-05-10T07:08:59.688Z,43.97
2018-05-10T07:11:28.240Z,42.90
2018-05-10T07:13:56.049Z,43.63
2018-05-10T07:16:23.933Z,46.17
2018-05-10T07:18:51.848Z,43.20
2018-05-10T07:21:20.283Z,41.23
2018-05-10T07:23:50.697Z,43.10
2018-05-10T07:26:18.963Z,41.57
2018-05-10T07:28:46.513Z,37.47
2018-05-10T07:31:13.978Z,40.07
2018-05-10T07:33:41.573Z,39.77
2018-05-10T07:36:09.181Z,38.90
2018-05-10T07:38:36.722Z,41.13
2018-05-10T07:41:04.268Z,37.30
2018-05-10T07:43:32.177Z,37.97
2018-05-10T07:46:00.013Z,39.07
2018-05-10T07:48:28.014Z,36.57
2018-05-10T07:50:55.504Z,37.90
2018-05-10T07:53:23.668Z,36.17
2018-05-10T07:55:51.181Z,37.70
2018-05-10T07:58:19.176Z,37.80
2018-05-10T08:00:46.742Z,37.23
2018-05-10T08:03:14.668Z,37.80
2018-05-10T08:05:42.206Z,36.30
2018-05-10T08:08:09.759Z,39.50
2018-05-10T08:10:37.417Z,37.00
2018-05-10T08:13:04.985Z,37.67
2018-05-10T08:15:32.489Z,37.40
2018-05-10T08:18:00.447Z,35.77
2018-05-10T08:20:27.962Z,38.07
2018-05-10T08:22:55.551Z,37.77
2018-05-10T08:25:23.047Z,35.10
2018-05-10T08:27:50.575Z,35.70
2018-05-10T08:30:18.210Z,34.13
2018-05-10T08:32:47.388Z,37.10
2018-05-10T08:35:15.418Z,36.87
2018-05-10T08:37:42.976Z,36.70
2018-05-10T08:40:11.217Z,34.80
2018-05-10T08:42:38.731Z,34.90
2018-05-10T08:45:07.280Z,34.50
2018-05-10T08:47:34.745Z,34.87
2018-05-10T08:50:02.302Z,33.10
2018-05-10T08:52:29.928Z,31.83
2018-05-10T08:54:57.436Z,29.90
2018-05-10T08:57:26.065Z,30.20
2018-05-10T08:59:53.705Z,30.27
2018-05-10T09:02:21.640Z,27.47
2018-05-10T09:04:49.177Z,26.57
2018-05-10T09:07:16.696Z,30.97
2018-05-10T09:09:44.604Z,27.33
2018-05-10T09:12:12.948Z,26.80
2018-05-10T09:14:40.988Z,26.30
2018-05-10T09:17:08.624Z,28.20
2018-05-10T09:19:36.167Z,27.80
2018-05-10T09:22:04.098Z,25.57
2018-05-10T09:24:31.612Z,24.23
2018-05-10T09:26:59.128Z,24.20
2018-05-10T09:29:26.645Z,25.40
2018-05-10T09:31:54.163Z,25.77
2018-05-10T09:34:21.657Z,27.27
2018-05-10T09:36:49.635Z,24.03
2018-05-10T09:39:17.197Z,25.33
2018-05-10T09:41:45.563Z,24.57
2018-05-10T09:44:13.561Z,22.73
2018-05-10T09:46:41.079Z,25.00
2018-05-10T09:49:08.642Z,23.83
2018-05-10T09:51:36.243Z,24.90
2018-05-10T09:54:04.187Z,26.50
2018-05-10T09:56:31.778Z,26.07
2018-05-10T09:58:59.656Z,24.40
2018-05-10T10:01:27.604Z,23.40
2018-05-10T10:03:55.545Z,24.57
2018-05-10T10:06:23.649Z,23.63
2018-05-10T10:08:51.576Z,25.00
2018-05-10T10:11:19.132Z,23.73
2018-05-10T10:13:46.718Z,22.97
2018-05-10T10:16:14.247Z,23.13
2018-05-10T10:18:42.761Z,23.23
2018-05-10T10:21:10.669Z,24.50
2018-05-10T10:23:38.349Z,23.30
2018-05-10T10:26:06.486Z,23.70
2018-05-10T10:28:34.559Z,24.10
2018-05-10T10:31:02.375Z,24.33
2018-05-10T10:33:30.436Z,23.30
2018-05-10T10:35:58.474Z,23.20
2018-05-10T10:38:26.504Z,24.77
2018-05-10T10:40:54.356Z,22.13
2018-05-10T10:43:23.083Z,22.33
2018-05-10T10:45:50.763Z,22.53
2018-05-10T10:48:18.457Z,21.47
2018-05-10T10:50:46.456Z,20.33
2018-05-10T10:53:14.327Z,20.40
2018-05-10T10:55:42.751Z,18.77
2018-05-10T10:58:10.671Z,19.47
2018-05-10T11:00:38.708Z,18.70
2018-05-10T11:03:06.233Z,20.17
2018-05-10T11:05:33.759Z,19.87
2018-05-10T11:08:01.254Z,18.80
2018-05-10T11:10:28.760Z,19.07
2018-05-10T11:12:56.299Z,18.53
2018-05-10T11:15:24.236Z,18.00
2018-05-10T11:17:51.775Z,20.33
2018-05-10T11:20:19.293Z,18.77
2018-05-10T11:22:46.778Z,20.00
2018-05-10T11:25:14.661Z,21.20
2018-05-10T11:27:42.337Z,18.47
2018-05-10T11:30:09.824Z,20.33
2018-05-10T11:32:38.264Z,20.27
2018-05-10T11:35:05.832Z,20.10
2018-05-10T11:37:34.177Z,20.23
2018-05-10T11:40:01.725Z,21.03
2018-05-10T11:42:29.236Z,21.20
2018-05-10T11:44:56.725Z,20.03
2018-05-10T11:47:24.269Z,18.70
2018-05-10T11:49:51.767Z,19.47
2018-05-10T11:52:19.322Z,19.10
2018-05-10T11:54:46.819Z,18.70
2018-05-10T11:57:14.349Z,17.80
2018-05-10T11:59:41.838Z,15.20
2018-05-10T12:02:09.368Z,16.10
2018-05-10T12:04:40.941Z,16.00
2018-05-10T12:07:08.731Z,15.40
2018-05-10T12:09:36.261Z,15.77
2018-05-10T12:12:03.759Z,14.50
2018-05-10T12:14:31.581Z,14.87
2018-05-10T12:16:59.112Z,15.37
2018-05-10T12:19:27.126Z,13.97
2018-05-10T12:21:54.601Z,15.40
2018-05-10T12:24:22.118Z,14.90
2018-05-10T12:26:50.024Z,14.83
2018-05-10T12:29:17.586Z,14.93
2018-05-10T12:31:45.085Z,13.40
2018-05-10T12:34:12.619Z,13.87
2018-05-10T12:36:40.129Z,13.27
2018-05-10T12:39:08.080Z,13.37
2018-05-10T12:41:35.724Z,13.70
2018-05-10T12:44:03.278Z,12.70
2018-05-10T12:46:31.876Z,12.97
2018-05-10T12:49:00.363Z,13.00
2018-05-10T12:51:29.372Z,14.20
2018-05-10T12:53:56.928Z,12.80
2018-05-10T12:56:24.817Z,15.80
2018-05-10T12:58:52.312Z,17.43
2018-05-10T13:01:20.212Z,19.87
2018-05-10T13:03:47.741Z,19.37
2018-05-10T13:06:15.275Z,17.50
2018-05-10T13:08:42.757Z,18.20
2018-05-10T13:11:10.864Z,19.73
2018-05-10T13:13:38.743Z,20.13
2018-05-10T13:16:06.483Z,19.67
2018-05-10T13:18:34.464Z,22.73
2018-05-10T13:21:02.302Z,22.90
2018-05-10T13:23:29.816Z,23.50
2018-05-10T13:25:57.684Z,23.63
2018-05-10T13:28:25.557Z,22.70
2018-05-10T13:30:53.137Z,22.53
2018-05-10T13:33:20.919Z,22.87
2018-05-10T13:35:48.412Z,18.67
2018-05-10T13:38:16.194Z,14.70
2018-05-10T13:40:44.128Z,12.10
2018-05-10T13:43:11.750Z,10.13
2018-05-10T13:45:39.987Z,9.90
2018-05-10T13:48:07.650Z,9.60
2018-05-10T13:50:35.201Z,9.60
2018-05-10T13:53:03.404Z,9.80
2018-05-10T13:55:31.043Z,9.77
2018-05-10T13:57:58.551Z,9.90
2018-05-10T14:00:26.491Z,10.70
2018-05-10T14:02:54.035Z,9.63
2018-05-10T14:05:21.657Z,10.60
2018-05-10T14:07:49.372Z,9.83
2018-05-10T14:10:16.902Z,10.80
2018-05-10T14:12:44.790Z,9.83
2018-05-10T14:15:12.309Z,10.30
2018-05-10T14:17:39.925Z,8.80
2018-05-10T14:20:08.413Z,10.07
2018-05-10T14:22:36.042Z,10.77
2018-05-10T14:25:03.608Z,9.70
2018-05-10T14:27:31.164Z,10.03
2018-05-10T14:29:58.723Z,10.67
2018-05-10T14:32:26.731Z,9.90
2018-05-10T14:34:54.307Z,11.10
2018-05-10T14:37:22.013Z,9.77
2018-05-10T14:39:49.696Z,10.30
2018-05-10T14:42:17.250Z,10.60
2018-05-10T14:44:45.383Z,10.37
2018-05-10T14:47:13.453Z,10.37
2018-05-10T14:49:40.974Z,8.30
2018-05-10T14:52:08.569Z,9.47
2018-05-10T14:54:36.758Z,10.30
2018-05-10T14:57:04.302Z,8.90
2018-05-10T14:59:32.301Z,8.33
2018-05-10T15:02:00.296Z,8.07
2018-05-10T15:04:27.945Z,8.80
2018-05-10T15:06:55.559Z,9.40
2018-05-10T15:09:23.236Z,8.93
2018-05-10T15:11:50.773Z,9.50
2018-05-10T15:14:18.289Z,8.47
2018-05-10T15:16:46.074Z,9.97
2018-05-10T15:19:13.675Z,9.07
2018-05-10T15:21:41.227Z,9.67
2018-05-10T15:24:09.261Z,9.57
2018-05-10T15:26:37.213Z,7.20
2018-05-10T15:29:04.725Z,9.10
2018-05-10T15:31:32.251Z,7.30
2018-05-10T15:34:00.355Z,7.23
2018-05-10T15:36:27.940Z,7.00
2018-05-10T15:38:55.511Z,7.33
2018-05-10T15:41:23.161Z,8.47
2018-05-10T15:43:50.719Z,7.60
2018-05-10T15:46:18.918Z,7.90
2018-05-10T15:48:46.496Z,7.17
2018-05-10T15:51:14.076Z,7.63
2018-05-10T15:53:41.686Z,7.70
2018-05-10T15:56:09.471Z,7.53
2018-05-10T15:58:37.100Z,7.37
2018-05-10T16:01:05.028Z,6.30
2018-05-10T16:03:32.778Z,8.80
2018-05-10T16:06:00.434Z,7.40
2018-05-10T16:08:28.000Z,8.70
2018-05-10T16:10:55.919Z,7.43
2018-05-10T16:13:23.479Z,8.87
2018-05-10T16:15:51.064Z,8.20
2018-05-10T16:18:18.769Z,8.40
2018-05-10T16:20:46.641Z,9.50
2018-05-10T16:23:14.484Z,8.70
2018-05-10T16:25:42.075Z,8.67
2018-05-10T16:28:09.644Z,9.10
2018-05-10T16:30:37.225Z,8.60
2018-05-10T16:33:05.481Z,8.77
2018-05-10T16:35:33.760Z,8.70
2018-05-10T16:38:01.310Z,8.80
2018-05-10T16:40:29.435Z,8.23
2018-05-10T16:42:56.932Z,7.57
2018-05-10T16:45:24.482Z,9.27
2018-05-10T16:47:52.074Z,9.07
2018-05-10T16:50:20.006Z,9.50
2018-05-10T16:52:48.265Z,10.50
2018-05-10T16:55:16.531Z,10.70
2018-05-10T16:57:44.118Z,9.07
2018-05-10T17:00:11.696Z,9.90
2018-05-10T17:02:39.311Z,10.63
2018-05-10T17:05:06.992Z,9.67
2018-05-10T17:07:34.688Z,10.70
2018-05-10T17:10:02.214Z,10.47
2018-05-10T17:12:29.835Z,9.40
2018-05-10T17:14:57.595Z,9.17
2018-05-10T17:17:25.174Z,10.90
2018-05-10T17:19:52.695Z,9.20
2018-05-10T17:22:20.336Z,10.07
2018-05-10T17:24:47.884Z,11.10
2018-05-10T17:27:15.405Z,9.90
2018-05-10T17:29:42.972Z,10.80
2018-05-10T17:32:10.577Z,10.30
2018-05-10T17:34:38.562Z,10.20
2018-05-10T17:37:06.462Z,11.17
2018-05-10T17:39:34.124Z,12.60
2018-05-10T17:42:01.776Z,10.17
2018-05-10T17:44:29.348Z,10.83
2018-05-10T17:46:56.939Z,10.83
2018-05-10T17:49:24.587Z,12.40
2018-05-10T17:51:52.162Z,12.27
2018-05-10T17:54:19.729Z,12.10
2018-05-10T17:56:47.252Z,12.57
2018-05-10T17:59:15.214Z,13.00
2018-05-10T18:01:43.206Z,11.63
2018-05-10T18:04:10.750Z,11.67
2018-05-10T18:06:40.019Z,11.50
2018-05-10T18:09:07.520Z,10.90
2018-05-10T18:11:35.110Z,10.73
2018-05-10T18:14:02.604Z,11.43
2018-05-10T18:16:30.098Z,10.93
2018-05-10T18:18:57.590Z,11.10
2018-05-10T18:21:25.571Z,11.13
2018-05-10T18:23:53.516Z,11.70
2018-05-10T18:26:21.123Z,11.10
2018-05-10T18:28:48.652Z,11.70
2018-05-10T18:31:16.687Z,11.30
2018-05-10T18:33:44.430Z,11.67
2018-05-10T18:36:12.156Z,12.13
2018-05-10T18:38:40.261Z,11.37
2018-05-10T18:41:08.796Z,12.33
2018-05-10T18:43:36.406Z,11.60
2018-05-10T18:46:04.239Z,11.40
2018-05-10T18:48:31.980Z,13.10
2018-05-10T18:50:59.911Z,12.60
2018-05-10T18:53:27.963Z,12.97
2018-05-10T18:55:55.818Z,11.13
2018-05-10T18:58:23.436Z,11.90
2018-05-10T19:00:50.963Z,11.93
2018-05-10T19:03:18.541Z,12.20
2018-05-10T19:05:46.365Z,12.90
2018-05-10T19:08:14.121Z,11.67
2018-05-10T19:10:41.940Z,13.13
2018-05-10T19:13:09.593Z,13.27
2018-05-10T19:15:37.228Z,12.57
2018-05-10T19:18:07.458Z,13.50
2018-05-10T19:20:35.074Z,12.53
2018-05-10T19:23:03.177Z,11.90
2018-05-10T19:25:31.718Z,11.97
2018-05-10T19:28:00.724Z,13.40
2018-05-10T19:30:28.763Z,12.77
2018-05-10T19:32:56.369Z,14.20
2018-05-10T19:35:24.058Z,12.07
2018-05-10T19:37:51.985Z,13.20
2018-05-10T19:40:19.822Z,13.53
2018-05-10T19:42:47.751Z,13.90
2018-05-10T19:45:15.837Z,13.60
2018-05-10T19:47:44.383Z,12.87
2018-05-10T19:50:12.182Z,13.50
2018-05-10T19:52:40.004Z,13.63
2018-05-10T19:55:07.794Z,13.23
2018-05-10T19:57:35.403Z,12.83
2018-05-10T20:00:04.026Z,13.90
2018-05-10T20:02:31.896Z,13.70
2018-05-10T20:05:00.113Z,13.13
2018-05-10T20:07:28.246Z,13.30
2018-05-10T20:09:55.950Z,13.27
2018-05-10T20:12:23.853Z,13.90
2018-05-10T20:14:51.443Z,13.97
2018-05-10T20:17:19.768Z,13.83
2018-05-10T20:19:47.472Z,13.73
2018-05-10T20:22:15.290Z,14.87
2018-05-10T20:24:42.918Z,12.77
2018-05-10T20:27:10.897Z,13.17
2018-05-10T20:29:38.656Z,14.20
2018-05-10T20:32:06.898Z,14.33
2018-05-10T20:34:34.491Z,12.50
2018-05-10T20:37:02.406Z,13.80
2018-05-10T20:39:30.522Z,14.77
2018-05-10T20:41:58.042Z,13.97
2018-05-10T20:44:25.575Z,13.60
2018-05-10T20:46:53.551Z,13.70
2018-05-10T20:49:21.547Z,13.50
2018-05-10T20:51:49.076Z,13.40
2018-05-10T20:54:17.189Z,14.93
2018-05-10T20:56:45.060Z,15.40
2018-05-10T20:59:12.730Z,15.17
2018-05-10T21:01:40.332Z,15.63
2018-05-10T21:04:08.051Z,15.40
2018-05-10T21:06:35.658Z,15.07
2018-05-10T21:09:03.179Z,14.80
2018-05-10T21:11:30.672Z,15.30
2018-05-10T21:13:58.176Z,13.17
2018-05-10T21:16:26.261Z,14.67
2018-05-10T21:18:54.221Z,13.27
2018-05-10T21:21:22.160Z,12.90
2018-05-10T21:23:49.718Z,12.77
2018-05-10T21:26:17.276Z,12.63
2018-05-10T21:28:44.826Z,12.20
2018-05-10T21:31:12.959Z,12.70
2018-05-10T21:33:40.494Z,13.50
2018-05-10T21:36:08.033Z,12.07
2018-05-10T21:38:35.562Z,13.90
2018-05-10T21:41:03.088Z,13.00
2018-05-10T21:43:30.691Z,12.77
2018-05-10T21:45:58.208Z,12.90
2018-05-10T21:48:25.954Z,11.83
2018-05-10T21:50:53.576Z,12.17
2018-05-10T21:53:22.028Z,12.77
2018-05-10T21:55:50.204Z,12.30
2018-05-10T21:58:18.037Z,11.20
2018-05-10T22:00:45.731Z,12.67
2018-05-10T22:03:13.391Z,10.83
2018-05-10T22:05:40.918Z,12.10
2018-05-10T22:08:08.550Z,11.40
2018-05-10T22:10:36.065Z,11.77
2018-05-10T22:13:04.768Z,12.13
2018-05-10T22:15:32.408Z,11.80
2018-05-10T22:18:00.025Z,11.63
2018-05-10T22:20:27.687Z,11.37
2018-05-10T22:22:55.214Z,12.20
2018-05-10T22:25:23.472Z,12.17
2018-05-10T22:27:53.153Z,11.57
2018-05-10T22:30:20.679Z,12.90
2018-05-10T22:32:48.260Z,13.03
2018-05-10T22:35:15.859Z,11.73
2018-05-10T22:37:43.508Z,11.80
2018-05-10T22:40:10.992Z,12.87
2018-05-10T22:42:38.541Z,12.40
2018-05-10T22:45:06.205Z,11.90
2018-05-10T22:47:33.752Z,11.43
2018-05-10T22:50:01.287Z,11.87
2018-05-10T22:52:29.244Z,12.17
2018-05-10T22:54:56.847Z,10.87
2018-05-10T22:57:24.451Z,13.37
2018-05-10T22:59:52.016Z,11.40
2018-05-10T23:02:20.061Z,11.83
2018-05-10T23:04:47.602Z,11.87
2018-05-10T23:07:15.129Z,11.50
2018-05-10T23:09:42.797Z,12.17
2018-05-10T23:12:10.486Z,13.87
2018-05-10T23:14:38.107Z,12.40
2018-05-10T23:17:05.662Z,12.73
2018-05-10T23:19:33.204Z,11.93
2018-05-10T23:22:00.863Z,12.43
2018-05-10T23:24:28.375Z,11.93
2018-05-10T23:26:55.935Z,14.57
2018-05-10T23:29:23.523Z,13.73
2018-05-10T23:31:51.034Z,11.40
2018-05-10T23:34:18.904Z,11.97
2018-05-10T23:36:46.468Z,12.60
2018-05-10T23:39:14.038Z,12.50
2018-05-10T23:41:41.652Z,13.27
2018-05-10T23:44:09.551Z,12.47
2018-05-10T23:46:37.205Z,12.23
2018-05-10T23:49:05.423Z,13.70
2018-05-10T23:51:32.973Z,12.97
2018-05-10T23:54:00.583Z,13.00
2018-05-10T23:56:28.097Z,13.13
2018-05-10T23:58:55.991Z,12.47
